sensor_id;sensor_type;location;lat;lon;timestamp;temperature;humidity
41447;DHT22;27185;52.040;4.490;2023-02-28T00:00:49;4.60;99.90
41447;DHT22;27185;52.040;4.490;2023-02-28T00:03:35;4.60;99.90
41447;DHT22;27185;52.040;4.490;2023-02-28T00:06:21;4.70;99.90
41447;DHT22;27185;52.040;4.490;2023-02-28T00:09:07;4.70;99.90
41447;DHT22;27185;52.040;4.490;2023-02-28T00:11:53;4.80;99.90
41447;DHT22;27185;52.040;4.490;2023-02-28T00:14:38;4.90;99.90
41447;DHT22;27185;52.040;4.490;2023-02-28T00:17:24;4.90;99.90
41447;DHT22;27185;52.040;4.490;2023-02-28T00:20:11;5.00;99.90
41447;DHT22;27185;52.040;4.490;2023-02-28T00:22:57;5.00;99.90
41447;DHT22;27185;52.040;4.490;2023-02-28T00:25:42;5.10;99.90
41447;DHT22;27185;52.040;4.490;2023-02-28T00:28:28;5.20;99.90
41447;DHT22;27185;52.040;4.490;2023-02-28T00:31:14;5.20;99.90
41447;DHT22;27185;52.040;4.490;2023-02-28T00:33:59;5.20;99.90
41447;DHT22;27185;52.040;4.490;2023-02-28T00:36:45;5.30;99.90
41447;DHT22;27185;52.040;4.490;2023-02-28T00:39:35;5.30;99.90
41447;DHT22;27185;52.040;4.490;2023-02-28T00:42:21;5.40;99.90
41447;DHT22;27185;52.040;4.490;2023-02-28T00:45:07;5.40;99.90
41447;DHT22;27185;52.040;4.490;2023-02-28T00:47:53;5.40;99.90
41447;DHT22;27185;52.040;4.490;2023-02-28T00:50:39;5.50;99.90
41447;DHT22;27185;52.040;4.490;2023-02-28T00:53:24;5.50;99.90
41447;DHT22;27185;52.040;4.490;2023-02-28T00:56:10;5.50;99.90
41447;DHT22;27185;52.040;4.490;2023-02-28T00:58:56;5.50;99.90
41447;DHT22;27185;52.040;4.490;2023-02-28T01:01:43;5.50;99.90
41447;DHT22;27185;52.040;4.490;2023-02-28T01:04:28;5.50;99.90
41447;DHT22;27185;52.040;4.490;2023-02-28T01:07:14;5.60;99.90
41447;DHT22;27185;52.040;4.490;2023-02-28T01:10:00;5.60;99.90
41447;DHT22;27185;52.040;4.490;2023-02-28T01:12:45;5.60;99.90
41447;DHT22;27185;52.040;4.490;2023-02-28T01:15:31;5.60;99.90
41447;DHT22;27185;52.040;4.490;2023-02-28T01:18:18;5.60;99.90
41447;DHT22;27185;52.040;4.490;2023-02-28T01:21:08;5.60;99.90
41447;DHT22;27185;52.040;4.490;2023-02-28T01:23:56;5.70;99.90
41447;DHT22;27185;52.040;4.490;2023-02-28T01:26:42;5.70;99.90
41447;DHT22;27185;52.040;4.490;2023-02-28T01:29:28;5.70;99.90
41447;DHT22;27185;52.040;4.490;2023-02-28T01:32:13;5.70;99.90
41447;DHT22;27185;52.040;4.490;2023-02-28T01:34:59;5.70;99.90
41447;DHT22;27185;52.040;4.490;2023-02-28T01:37:44;5.70;99.90
41447;DHT22;27185;52.040;4.490;2023-02-28T01:40:30;5.80;99.90
41447;DHT22;27185;52.040;4.490;2023-02-28T01:43:25;5.70;99.90
41447;DHT22;27185;52.040;4.490;2023-02-28T01:46:12;5.70;99.90
41447;DHT22;27185;52.040;4.490;2023-02-28T01:49:12;5.70;99.90
41447;DHT22;27185;52.040;4.490;2023-02-28T01:51:59;5.70;99.90
41447;DHT22;27185;52.040;4.490;2023-02-28T01:54:51;5.70;99.90
41447;DHT22;27185;52.040;4.490;2023-02-28T01:57:50;5.70;99.90
41447;DHT22;27185;52.040;4.490;2023-02-28T02:00:36;5.70;99.90
41447;DHT22;27185;52.040;4.490;2023-02-28T02:03:24;5.70;99.90
41447;DHT22;27185;52.040;4.490;2023-02-28T02:06:10;5.70;99.90
41447;DHT22;27185;52.040;4.490;2023-02-28T02:08:55;5.70;99.90
41447;DHT22;27185;52.040;4.490;2023-02-28T02:11:43;5.70;99.90
41447;DHT22;27185;52.040;4.490;2023-02-28T02:15:05;5.70;99.90
41447;DHT22;27185;52.040;4.490;2023-02-28T02:17:56;5.70;99.90
41447;DHT22;27185;52.040;4.490;2023-02-28T02:36:33;5.80;99.90
41447;DHT22;27185;52.040;4.490;2023-02-28T02:39:30;5.80;99.90
41447;DHT22;27185;52.040;4.490;2023-02-28T02:42:23;5.80;99.90
41447;DHT22;27185;52.040;4.490;2023-02-28T02:45:15;5.90;99.90
41447;DHT22;27185;52.040;4.490;2023-02-28T02:48:05;5.90;99.90
41447;DHT22;27185;52.040;4.490;2023-02-28T02:50:57;5.90;99.90
41447;DHT22;27185;52.040;4.490;2023-02-28T02:54:12;5.90;99.90
41447;DHT22;27185;52.040;4.490;2023-02-28T02:57:03;6.00;99.90
41447;DHT22;27185;52.040;4.490;2023-02-28T02:59:51;6.00;99.90
41447;DHT22;27185;52.040;4.490;2023-02-28T03:02:39;6.00;99.90
41447;DHT22;27185;52.040;4.490;2023-02-28T03:05:32;6.00;99.90
41447;DHT22;27185;52.040;4.490;2023-02-28T03:08:19;6.10;99.90
41447;DHT22;27185;52.040;4.490;2023-02-28T03:11:07;6.10;99.90
41447;DHT22;27185;52.040;4.490;2023-02-28T03:14:25;6.10;99.90
41447;DHT22;27185;52.040;4.490;2023-02-28T03:21:06;6.20;99.90
41447;DHT22;27185;52.040;4.490;2023-02-28T03:24:03;6.20;99.90
41447;DHT22;27185;52.040;4.490;2023-02-28T03:26:58;6.20;99.90
41447;DHT22;27185;52.040;4.490;2023-02-28T03:33:44;6.20;99.90
41447;DHT22;27185;52.040;4.490;2023-02-28T03:36:09;6.20;99.90
41447;DHT22;27185;52.040;4.490;2023-02-28T03:39:01;6.20;99.90
41447;DHT22;27185;52.040;4.490;2023-02-28T03:41:57;6.20;99.90
41447;DHT22;27185;52.040;4.490;2023-02-28T03:44:56;6.20;99.90
41447;DHT22;27185;52.040;4.490;2023-02-28T03:48:03;6.30;99.90
41447;DHT22;27185;52.040;4.490;2023-02-28T03:50:55;6.30;99.90
41447;DHT22;27185;52.040;4.490;2023-02-28T03:53:52;6.30;99.90
41447;DHT22;27185;52.040;4.490;2023-02-28T03:56:46;6.30;99.90
41447;DHT22;27185;52.040;4.490;2023-02-28T03:59:56;6.30;99.90
41447;DHT22;27185;52.040;4.490;2023-02-28T04:02:42;6.30;99.90
41447;DHT22;27185;52.040;4.490;2023-02-28T04:05:29;6.40;99.90
41447;DHT22;27185;52.040;4.490;2023-02-28T04:08:15;6.40;99.90
41447;DHT22;27185;52.040;4.490;2023-02-28T04:11:06;6.40;99.90
41447;DHT22;27185;52.040;4.490;2023-02-28T04:13:54;6.40;99.90
41447;DHT22;27185;52.040;4.490;2023-02-28T04:16:41;6.40;99.90
41447;DHT22;27185;52.040;4.490;2023-02-28T04:19:27;6.50;99.90
41447;DHT22;27185;52.040;4.490;2023-02-28T04:22:12;6.50;99.90
41447;DHT22;27185;52.040;4.490;2023-02-28T04:24:59;6.50;99.90
41447;DHT22;27185;52.040;4.490;2023-02-28T04:27:44;6.50;99.90
41447;DHT22;27185;52.040;4.490;2023-02-28T04:30:30;6.50;99.90
41447;DHT22;27185;52.040;4.490;2023-02-28T04:33:18;6.50;99.90
41447;DHT22;27185;52.040;4.490;2023-02-28T04:36:07;6.50;99.90
41447;DHT22;27185;52.040;4.490;2023-02-28T04:38:54;6.50;99.90
41447;DHT22;27185;52.040;4.490;2023-02-28T04:41:39;6.50;99.90
41447;DHT22;27185;52.040;4.490;2023-02-28T04:44:25;6.50;99.90
41447;DHT22;27185;52.040;4.490;2023-02-28T04:47:11;6.50;99.90
41447;DHT22;27185;52.040;4.490;2023-02-28T04:49:56;6.50;99.90
41447;DHT22;27185;52.040;4.490;2023-02-28T04:52:42;6.50;99.90
41447;DHT22;27185;52.040;4.490;2023-02-28T04:55:28;6.50;99.90
41447;DHT22;27185;52.040;4.490;2023-02-28T04:58:13;6.50;99.90
41447;DHT22;27185;52.040;4.490;2023-02-28T05:01:05;6.50;99.90
41447;DHT22;27185;52.040;4.490;2023-02-28T05:03:59;6.50;99.90
41447;DHT22;27185;52.040;4.490;2023-02-28T05:06:46;6.50;99.90
41447;DHT22;27185;52.040;4.490;2023-02-28T05:09:32;6.50;99.90
41447;DHT22;27185;52.040;4.490;2023-02-28T05:12:21;6.50;99.90
41447;DHT22;27185;52.040;4.490;2023-02-28T05:15:12;6.50;99.90
41447;DHT22;27185;52.040;4.490;2023-02-28T05:17:57;6.50;99.90
41447;DHT22;27185;52.040;4.490;2023-02-28T05:20:43;6.40;99.90
41447;DHT22;27185;52.040;4.490;2023-02-28T05:23:29;6.40;99.90
41447;DHT22;27185;52.040;4.490;2023-02-28T05:26:14;6.40;99.90
41447;DHT22;27185;52.040;4.490;2023-02-28T05:29:00;6.40;99.90
41447;DHT22;27185;52.040;4.490;2023-02-28T05:31:46;6.30;99.90
41447;DHT22;27185;52.040;4.490;2023-02-28T05:34:31;6.30;99.90
41447;DHT22;27185;52.040;4.490;2023-02-28T05:37:17;6.30;99.90
41447;DHT22;27185;52.040;4.490;2023-02-28T05:40:04;6.30;99.90
41447;DHT22;27185;52.040;4.490;2023-02-28T05:42:55;6.30;99.90
41447;DHT22;27185;52.040;4.490;2023-02-28T05:45:41;6.20;99.90
41447;DHT22;27185;52.040;4.490;2023-02-28T05:48:26;6.20;99.90
41447;DHT22;27185;52.040;4.490;2023-02-28T05:51:12;6.20;99.90
41447;DHT22;27185;52.040;4.490;2023-02-28T05:54:01;6.20;99.90
41447;DHT22;27185;52.040;4.490;2023-02-28T05:56:46;6.20;99.90
41447;DHT22;27185;52.040;4.490;2023-02-28T05:59:32;6.20;99.90
41447;DHT22;27185;52.040;4.490;2023-02-28T06:02:18;6.10;99.90
41447;DHT22;27185;52.040;4.490;2023-02-28T06:05:04;6.10;99.90
41447;DHT22;27185;52.040;4.490;2023-02-28T06:07:50;6.10;99.90
41447;DHT22;27185;52.040;4.490;2023-02-28T06:10:35;6.10;99.90
41447;DHT22;27185;52.040;4.490;2023-02-28T06:13:21;6.10;99.90
41447;DHT22;27185;52.040;4.490;2023-02-28T06:16:09;6.10;99.90
41447;DHT22;27185;52.040;4.490;2023-02-28T06:18:57;6.10;99.90
41447;DHT22;27185;52.040;4.490;2023-02-28T06:21:43;6.10;99.90
41447;DHT22;27185;52.040;4.490;2023-02-28T06:24:29;6.10;99.90
41447;DHT22;27185;52.040;4.490;2023-02-28T06:27:16;6.00;99.90
41447;DHT22;27185;52.040;4.490;2023-02-28T06:30:02;6.10;99.90
41447;DHT22;27185;52.040;4.490;2023-02-28T06:32:47;6.10;99.90
41447;DHT22;27185;52.040;4.490;2023-02-28T06:35:34;6.10;99.90
41447;DHT22;27185;52.040;4.490;2023-02-28T06:38:20;6.00;99.90
41447;DHT22;27185;52.040;4.490;2023-02-28T06:41:06;6.00;99.90
41447;DHT22;27185;52.040;4.490;2023-02-28T06:43:52;6.00;99.90
41447;DHT22;27185;52.040;4.490;2023-02-28T06:46:40;5.90;99.90
41447;DHT22;27185;52.040;4.490;2023-02-28T06:49:25;5.90;99.90
41447;DHT22;27185;52.040;4.490;2023-02-28T06:52:11;5.80;99.90
41447;DHT22;27185;52.040;4.490;2023-02-28T06:54:57;5.80;99.90
41447;DHT22;27185;52.040;4.490;2023-02-28T06:57:45;5.70;99.90
41447;DHT22;27185;52.040;4.490;2023-02-28T07:00:30;5.70;99.90
41447;DHT22;27185;52.040;4.490;2023-02-28T07:03:16;5.60;99.90
41447;DHT22;27185;52.040;4.490;2023-02-28T07:06:04;5.50;99.90
41447;DHT22;27185;52.040;4.490;2023-02-28T07:08:51;5.50;99.90
41447;DHT22;27185;52.040;4.490;2023-02-28T07:11:38;5.40;99.90
41447;DHT22;27185;52.040;4.490;2023-02-28T07:14:23;5.40;99.90
41447;DHT22;27185;52.040;4.490;2023-02-28T07:17:09;5.30;99.90
41447;DHT22;27185;52.040;4.490;2023-02-28T07:19:57;5.30;99.90
41447;DHT22;27185;52.040;4.490;2023-02-28T07:22:42;5.20;99.90
41447;DHT22;27185;52.040;4.490;2023-02-28T07:25:29;5.20;99.90
41447;DHT22;27185;52.040;4.490;2023-02-28T07:28:14;5.10;99.90
41447;DHT22;27185;52.040;4.490;2023-02-28T07:31:04;5.00;99.90
41447;DHT22;27185;52.040;4.490;2023-02-28T07:33:50;5.00;99.90
41447;DHT22;27185;52.040;4.490;2023-02-28T07:36:36;4.90;99.90
41447;DHT22;27185;52.040;4.490;2023-02-28T07:39:22;4.90;99.90
41447;DHT22;27185;52.040;4.490;2023-02-28T07:42:08;4.80;99.90
41447;DHT22;27185;52.040;4.490;2023-02-28T07:44:57;4.70;99.90
41447;DHT22;27185;52.040;4.490;2023-02-28T07:47:44;4.60;99.90
41447;DHT22;27185;52.040;4.490;2023-02-28T07:50:29;4.60;99.90
41447;DHT22;27185;52.040;4.490;2023-02-28T07:53:16;4.50;99.90
41447;DHT22;27185;52.040;4.490;2023-02-28T07:56:02;4.50;99.90
41447;DHT22;27185;52.040;4.490;2023-02-28T07:58:47;4.40;99.90
41447;DHT22;27185;52.040;4.490;2023-02-28T08:01:33;4.40;99.90
41447;DHT22;27185;52.040;4.490;2023-02-28T08:04:19;4.40;99.90
41447;DHT22;27185;52.040;4.490;2023-02-28T08:07:04;4.30;99.90
41447;DHT22;27185;52.040;4.490;2023-02-28T08:09:50;4.30;99.90
41447;DHT22;27185;52.040;4.490;2023-02-28T08:12:36;4.20;99.90
41447;DHT22;27185;52.040;4.490;2023-02-28T08:15:21;4.20;99.90
41447;DHT22;27185;52.040;4.490;2023-02-28T08:18:07;4.20;99.90
41447;DHT22;27185;52.040;4.490;2023-02-28T08:20:52;4.20;99.90
41447;DHT22;27185;52.040;4.490;2023-02-28T08:23:38;4.10;99.90
41447;DHT22;27185;52.040;4.490;2023-02-28T08:26:24;4.10;99.90
41447;DHT22;27185;52.040;4.490;2023-02-28T08:29:09;4.10;99.90
41447;DHT22;27185;52.040;4.490;2023-02-28T08:31:55;4.10;99.90
41447;DHT22;27185;52.040;4.490;2023-02-28T08:34:41;4.10;99.90
41447;DHT22;27185;52.040;4.490;2023-02-28T08:37:26;4.10;99.90
41447;DHT22;27185;52.040;4.490;2023-02-28T08:40:12;4.10;99.90
41447;DHT22;27185;52.040;4.490;2023-02-28T08:43:03;4.20;99.90
41447;DHT22;27185;52.040;4.490;2023-02-28T08:45:51;4.20;99.90
41447;DHT22;27185;52.040;4.490;2023-02-28T08:48:37;4.30;99.90
41447;DHT22;27185;52.040;4.490;2023-02-28T08:51:23;4.30;99.90
41447;DHT22;27185;52.040;4.490;2023-02-28T08:54:11;4.30;99.90
41447;DHT22;27185;52.040;4.490;2023-02-28T08:57:04;4.40;99.90
41447;DHT22;27185;52.040;4.490;2023-02-28T08:59:50;4.40;99.90
41447;DHT22;27185;52.040;4.490;2023-02-28T09:02:36;4.50;99.90
41447;DHT22;27185;52.040;4.490;2023-02-28T09:05:22;4.50;99.90
41447;DHT22;27185;52.040;4.490;2023-02-28T09:08:08;4.50;99.90
41447;DHT22;27185;52.040;4.490;2023-02-28T09:10:54;4.60;99.90
41447;DHT22;27185;52.040;4.490;2023-02-28T09:13:41;4.60;99.90
41447;DHT22;27185;52.040;4.490;2023-02-28T09:16:27;4.60;99.90
41447;DHT22;27185;52.040;4.490;2023-02-28T09:19:12;4.70;99.90
41447;DHT22;27185;52.040;4.490;2023-02-28T09:21:58;4.70;99.90
41447;DHT22;27185;52.040;4.490;2023-02-28T09:24:44;4.80;99.90
41447;DHT22;27185;52.040;4.490;2023-02-28T09:27:30;4.80;99.90
41447;DHT22;27185;52.040;4.490;2023-02-28T09:30:15;4.90;99.90
41447;DHT22;27185;52.040;4.490;2023-02-28T09:33:01;5.00;99.90
41447;DHT22;27185;52.040;4.490;2023-02-28T09:35:51;5.10;99.90
41447;DHT22;27185;52.040;4.490;2023-02-28T09:38:36;5.20;99.90
41447;DHT22;27185;52.040;4.490;2023-02-28T09:41:25;5.20;99.90
41447;DHT22;27185;52.040;4.490;2023-02-28T09:44:31;5.40;99.90
41447;DHT22;27185;52.040;4.490;2023-02-28T09:50:40;5.60;99.90
41447;DHT22;27185;52.040;4.490;2023-02-28T09:53:32;5.70;99.90
41447;DHT22;27185;52.040;4.490;2023-02-28T09:56:26;5.80;99.90
41447;DHT22;27185;52.040;4.490;2023-02-28T10:02:21;6.00;99.90
41447;DHT22;27185;52.040;4.490;2023-02-28T10:05:17;6.10;99.90
41447;DHT22;27185;52.040;4.490;2023-02-28T10:10:58;6.20;99.90
41447;DHT22;27185;52.040;4.490;2023-02-28T10:14:01;6.30;99.90
41447;DHT22;27185;52.040;4.490;2023-02-28T10:16:59;6.40;99.90
41447;DHT22;27185;52.040;4.490;2023-02-28T10:19:58;6.40;99.90
41447;DHT22;27185;52.040;4.490;2023-02-28T10:25:39;6.60;99.90
41447;DHT22;27185;52.040;4.490;2023-02-28T10:28:32;6.60;99.90
41447;DHT22;27185;52.040;4.490;2023-02-28T10:31:19;6.70;99.90
41447;DHT22;27185;52.040;4.490;2023-02-28T10:34:05;6.80;99.90
41447;DHT22;27185;52.040;4.490;2023-02-28T10:36:51;6.90;99.90
41447;DHT22;27185;52.040;4.490;2023-02-28T10:39:43;6.90;99.90
41447;DHT22;27185;52.040;4.490;2023-02-28T10:42:31;7.00;99.90
41447;DHT22;27185;52.040;4.490;2023-02-28T10:45:17;7.10;99.90
41447;DHT22;27185;52.040;4.490;2023-02-28T10:51:01;7.10;99.90
41447;DHT22;27185;52.040;4.490;2023-02-28T10:53:54;7.10;99.90
41447;DHT22;27185;52.040;4.490;2023-02-28T10:56:40;7.10;99.90
41447;DHT22;27185;52.040;4.490;2023-02-28T10:59:30;7.20;99.90
41447;DHT22;27185;52.040;4.490;2023-02-28T11:02:32;7.20;99.90
41447;DHT22;27185;52.040;4.490;2023-02-28T11:05:31;7.20;99.90
41447;DHT22;27185;52.040;4.490;2023-02-28T11:08:18;7.40;99.90
41447;DHT22;27185;52.040;4.490;2023-02-28T11:11:06;7.60;99.90
41447;DHT22;27185;52.040;4.490;2023-02-28T11:13:54;7.70;99.90
41447;DHT22;27185;52.040;4.490;2023-02-28T11:16:41;7.90;99.90
41447;DHT22;27185;52.040;4.490;2023-02-28T11:19:46;8.00;99.90
41447;DHT22;27185;52.040;4.490;2023-02-28T11:22:39;8.10;99.90
41447;DHT22;27185;52.040;4.490;2023-02-28T11:25:37;8.10;99.90
41447;DHT22;27185;52.040;4.490;2023-02-28T11:31:15;8.10;99.90
41447;DHT22;27185;52.040;4.490;2023-02-28T11:34:10;8.10;99.90
41447;DHT22;27185;52.040;4.490;2023-02-28T11:37:15;8.10;99.90
41447;DHT22;27185;52.040;4.490;2023-02-28T11:40:02;8.10;99.90
41447;DHT22;27185;52.040;4.490;2023-02-28T11:55:30;8.30;99.90
41447;DHT22;27185;52.040;4.490;2023-02-28T11:58:44;8.50;99.90
41447;DHT22;27185;52.040;4.490;2023-02-28T12:02:00;8.70;99.90
41447;DHT22;27185;52.040;4.490;2023-02-28T12:11:42;9.50;99.90
41447;DHT22;27185;52.040;4.490;2023-02-28T12:26:39;11.20;99.90
41447;DHT22;27185;52.040;4.490;2023-02-28T12:29:33;11.50;99.90
41447;DHT22;27185;52.040;4.490;2023-02-28T12:32:34;11.70;99.90
41447;DHT22;27185;52.040;4.490;2023-02-28T12:35:26;12.10;99.90
41447;DHT22;27185;52.040;4.490;2023-02-28T12:38:29;12.40;99.90
41447;DHT22;27185;52.040;4.490;2023-02-28T12:41:25;12.80;98.60
41447;DHT22;27185;52.040;4.490;2023-02-28T12:44:34;13.10;97.80
41447;DHT22;27185;52.040;4.490;2023-02-28T12:47:20;13.30;97.30
41447;DHT22;27185;52.040;4.490;2023-02-28T12:50:09;13.50;99.90
41447;DHT22;27185;52.040;4.490;2023-02-28T12:56:30;14.00;97.20
41447;DHT22;27185;52.040;4.490;2023-02-28T13:02:49;14.30;95.80
41447;DHT22;27185;52.040;4.490;2023-02-28T13:06:12;14.50;92.50
41447;DHT22;27185;52.040;4.490;2023-02-28T13:11:49;14.80;95.80
41447;DHT22;27185;52.040;4.490;2023-02-28T13:14:37;15.00;95.90
41447;DHT22;27185;52.040;4.490;2023-02-28T13:17:24;15.10;94.50
41447;DHT22;27185;52.040;4.490;2023-02-28T13:20:20;15.20;92.60
41447;DHT22;27185;52.040;4.490;2023-02-28T13:23:37;15.20;88.80
41447;DHT22;27185;52.040;4.490;2023-02-28T13:29:40;15.10;86.00
41447;DHT22;27185;52.040;4.490;2023-02-28T13:32:35;15.00;91.20
41447;DHT22;27185;52.040;4.490;2023-02-28T13:35:36;15.10;87.50
41447;DHT22;27185;52.040;4.490;2023-02-28T13:38:24;15.10;90.30
41447;DHT22;27185;52.040;4.490;2023-02-28T13:44:18;15.30;86.20
41447;DHT22;27185;52.040;4.490;2023-02-28T13:49:50;15.20;86.50
41447;DHT22;27185;52.040;4.490;2023-02-28T13:52:47;15.20;87.90
41447;DHT22;27185;52.040;4.490;2023-02-28T14:01:48;15.00;87.30
41447;DHT22;27185;52.040;4.490;2023-02-28T14:05:02;14.90;87.50
41447;DHT22;27185;52.040;4.490;2023-02-28T14:07:56;14.90;85.80
41447;DHT22;27185;52.040;4.490;2023-02-28T14:10:47;14.90;87.10
41447;DHT22;27185;52.040;4.490;2023-02-28T14:13:42;14.90;86.70
41447;DHT22;27185;52.040;4.490;2023-02-28T14:16:39;14.60;76.00
41447;DHT22;27185;52.040;4.490;2023-02-28T14:19:27;14.40;78.20
41447;DHT22;27185;52.040;4.490;2023-02-28T14:25:17;14.20;84.20
41447;DHT22;27185;52.040;4.490;2023-02-28T14:28:21;14.00;78.90
41447;DHT22;27185;52.040;4.490;2023-02-28T14:31:15;13.90;83.70
41447;DHT22;27185;52.040;4.490;2023-02-28T14:34:20;13.90;84.50
41447;DHT22;27185;52.040;4.490;2023-02-28T14:37:13;13.90;82.70
41447;DHT22;27185;52.040;4.490;2023-02-28T14:40:00;13.80;77.90
41447;DHT22;27185;52.040;4.490;2023-02-28T14:42:58;13.70;74.40
41447;DHT22;27185;52.040;4.490;2023-02-28T14:45:50;13.50;72.30
41447;DHT22;27185;52.040;4.490;2023-02-28T14:48:37;13.40;74.30
41447;DHT22;27185;52.040;4.490;2023-02-28T14:51:23;13.20;73.70
41447;DHT22;27185;52.040;4.490;2023-02-28T14:54:18;13.20;75.70
41447;DHT22;27185;52.040;4.490;2023-02-28T15:00:31;13.10;74.00
41447;DHT22;27185;52.040;4.490;2023-02-28T15:03:32;13.20;72.90
41447;DHT22;27185;52.040;4.490;2023-02-28T15:06:18;13.20;74.20
41447;DHT22;27185;52.040;4.490;2023-02-28T15:09:09;13.30;77.30
41447;DHT22;27185;52.040;4.490;2023-02-28T15:11:55;13.30;75.50
41447;DHT22;27185;52.040;4.490;2023-02-28T15:14:43;13.40;76.50
41447;DHT22;27185;52.040;4.490;2023-02-28T15:17:29;13.40;77.10
41447;DHT22;27185;52.040;4.490;2023-02-28T15:20:15;13.50;77.30
41447;DHT22;27185;52.040;4.490;2023-02-28T15:23:02;13.50;75.50
41447;DHT22;27185;52.040;4.490;2023-02-28T15:25:48;13.50;74.30
41447;DHT22;27185;52.040;4.490;2023-02-28T15:28:35;13.50;73.90
41447;DHT22;27185;52.040;4.490;2023-02-28T15:31:29;13.40;71.70
41447;DHT22;27185;52.040;4.490;2023-02-28T15:34:22;13.30;72.50
41447;DHT22;27185;52.040;4.490;2023-02-28T15:40:17;13.20;71.90
41447;DHT22;27185;52.040;4.490;2023-02-28T15:43:24;13.40;76.20
41447;DHT22;27185;52.040;4.490;2023-02-28T15:46:12;13.30;74.20
41447;DHT22;27185;52.040;4.490;2023-02-28T15:48:59;13.30;76.90
41447;DHT22;27185;52.040;4.490;2023-02-28T15:51:45;13.20;74.30
41447;DHT22;27185;52.040;4.490;2023-02-28T15:54:33;13.20;74.80
41447;DHT22;27185;52.040;4.490;2023-02-28T15:57:25;13.20;73.80
41447;DHT22;27185;52.040;4.490;2023-02-28T16:00:16;13.10;74.40
41447;DHT22;27185;52.040;4.490;2023-02-28T16:03:25;13.00;74.40
41447;DHT22;27185;52.040;4.490;2023-02-28T16:09:15;12.80;75.00
41447;DHT22;27185;52.040;4.490;2023-02-28T16:12:02;12.70;76.20
41447;DHT22;27185;52.040;4.490;2023-02-28T16:14:52;12.70;76.30
41447;DHT22;27185;52.040;4.490;2023-02-28T16:17:38;12.60;75.80
41447;DHT22;27185;52.040;4.490;2023-02-28T16:20:29;12.50;76.50
41447;DHT22;27185;52.040;4.490;2023-02-28T16:23:15;12.30;74.60
41447;DHT22;27185;52.040;4.490;2023-02-28T16:26:03;12.20;74.30
41447;DHT22;27185;52.040;4.490;2023-02-28T16:28:49;12.10;75.40
41447;DHT22;27185;52.040;4.490;2023-02-28T16:31:37;11.90;76.50
41447;DHT22;27185;52.040;4.490;2023-02-28T16:34:23;11.60;76.40
41447;DHT22;27185;52.040;4.490;2023-02-28T16:37:14;11.40;77.20
41447;DHT22;27185;52.040;4.490;2023-02-28T16:40:00;11.00;76.70
41447;DHT22;27185;52.040;4.490;2023-02-28T16:42:47;10.60;77.40
41447;DHT22;27185;52.040;4.490;2023-02-28T16:45:33;10.40;78.60
41447;DHT22;27185;52.040;4.490;2023-02-28T16:48:19;10.10;79.80
41447;DHT22;27185;52.040;4.490;2023-02-28T16:51:05;9.70;81.00
41447;DHT22;27185;52.040;4.490;2023-02-28T16:53:50;9.40;81.70
41447;DHT22;27185;52.040;4.490;2023-02-28T16:56:39;9.20;81.70
41447;DHT22;27185;52.040;4.490;2023-02-28T16:59:27;8.90;82.70
41447;DHT22;27185;52.040;4.490;2023-02-28T17:02:15;8.70;84.20
41447;DHT22;27185;52.040;4.490;2023-02-28T17:05:01;8.60;85.80
41447;DHT22;27185;52.040;4.490;2023-02-28T17:07:47;8.50;87.40
41447;DHT22;27185;52.040;4.490;2023-02-28T17:10:33;8.30;88.10
41447;DHT22;27185;52.040;4.490;2023-02-28T17:13:19;8.20;89.40
41447;DHT22;27185;52.040;4.490;2023-02-28T17:16:05;8.00;90.20
41447;DHT22;27185;52.040;4.490;2023-02-28T17:18:50;7.90;90.70
41447;DHT22;27185;52.040;4.490;2023-02-28T17:21:37;7.80;91.20
41447;DHT22;27185;52.040;4.490;2023-02-28T17:24:22;7.70;91.70
41447;DHT22;27185;52.040;4.490;2023-02-28T17:27:11;7.60;92.10
41447;DHT22;27185;52.040;4.490;2023-02-28T17:29:58;7.50;92.50
41447;DHT22;27185;52.040;4.490;2023-02-28T17:32:44;7.40;93.00
41447;DHT22;27185;52.040;4.490;2023-02-28T17:35:29;7.30;93.50
41447;DHT22;27185;52.040;4.490;2023-02-28T17:38:17;7.30;93.80
41447;DHT22;27185;52.040;4.490;2023-02-28T17:41:03;7.20;94.40
41447;DHT22;27185;52.040;4.490;2023-02-28T17:43:48;7.10;94.80
41447;DHT22;27185;52.040;4.490;2023-02-28T17:46:36;7.00;95.20
41447;DHT22;27185;52.040;4.490;2023-02-28T17:49:22;6.90;95.60
41447;DHT22;27185;52.040;4.490;2023-02-28T17:52:08;6.90;96.00
41447;DHT22;27185;52.040;4.490;2023-02-28T17:54:53;6.80;96.40
41447;DHT22;27185;52.040;4.490;2023-02-28T17:57:39;6.70;96.80
41447;DHT22;27185;52.040;4.490;2023-02-28T18:00:27;6.70;97.20
41447;DHT22;27185;52.040;4.490;2023-02-28T18:03:12;6.60;97.50
41447;DHT22;27185;52.040;4.490;2023-02-28T18:05:59;6.60;97.80
41447;DHT22;27185;52.040;4.490;2023-02-28T18:08:44;6.50;98.00
41447;DHT22;27185;52.040;4.490;2023-02-28T18:11:30;6.50;98.30
41447;DHT22;27185;52.040;4.490;2023-02-28T18:14:26;6.50;98.50
41447;DHT22;27185;52.040;4.490;2023-02-28T18:17:12;6.40;98.80
41447;DHT22;27185;52.040;4.490;2023-02-28T18:19:58;6.40;99.00
41447;DHT22;27185;52.040;4.490;2023-02-28T18:22:44;6.30;99.20
41447;DHT22;27185;52.040;4.490;2023-02-28T18:25:30;6.30;99.40
41447;DHT22;27185;52.040;4.490;2023-02-28T18:28:16;6.20;99.60
41447;DHT22;27185;52.040;4.490;2023-02-28T18:31:08;6.20;99.70
41447;DHT22;27185;52.040;4.490;2023-02-28T18:33:53;6.10;99.90
41447;DHT22;27185;52.040;4.490;2023-02-28T18:36:39;6.10;99.90
41447;DHT22;27185;52.040;4.490;2023-02-28T18:39:26;6.00;99.90
41447;DHT22;27185;52.040;4.490;2023-02-28T18:42:12;6.00;99.90
41447;DHT22;27185;52.040;4.490;2023-02-28T18:44:58;6.00;99.90
41447;DHT22;27185;52.040;4.490;2023-02-28T18:47:44;5.90;99.90
41447;DHT22;27185;52.040;4.490;2023-02-28T18:50:29;5.80;99.90
41447;DHT22;27185;52.040;4.490;2023-02-28T18:53:15;5.80;99.90
41447;DHT22;27185;52.040;4.490;2023-02-28T18:56:02;5.80;99.90
41447;DHT22;27185;52.040;4.490;2023-02-28T18:58:49;5.70;99.90
41447;DHT22;27185;52.040;4.490;2023-02-28T19:01:35;5.60;99.90
41447;DHT22;27185;52.040;4.490;2023-02-28T19:04:20;5.60;99.90
41447;DHT22;27185;52.040;4.490;2023-02-28T19:07:06;5.60;99.90
41447;DHT22;27185;52.040;4.490;2023-02-28T19:09:52;5.50;99.90
41447;DHT22;27185;52.040;4.490;2023-02-28T19:12:38;5.50;99.90
41447;DHT22;27185;52.040;4.490;2023-02-28T19:15:24;5.40;99.90
41447;DHT22;27185;52.040;4.490;2023-02-28T19:18:09;5.40;99.90
41447;DHT22;27185;52.040;4.490;2023-02-28T19:20:55;5.40;99.90
41447;DHT22;27185;52.040;4.490;2023-02-28T19:23:41;5.40;99.90
41447;DHT22;27185;52.040;4.490;2023-02-28T19:26:27;5.30;99.90
41447;DHT22;27185;52.040;4.490;2023-02-28T19:29:12;5.30;99.90
41447;DHT22;27185;52.040;4.490;2023-02-28T19:31:58;5.20;99.90
41447;DHT22;27185;52.040;4.490;2023-02-28T19:34:44;5.20;99.90
41447;DHT22;27185;52.040;4.490;2023-02-28T19:37:30;5.20;99.90
41447;DHT22;27185;52.040;4.490;2023-02-28T19:40:15;5.20;99.90
41447;DHT22;27185;52.040;4.490;2023-02-28T19:43:01;5.10;99.90
41447;DHT22;27185;52.040;4.490;2023-02-28T19:45:47;5.10;99.90
41447;DHT22;27185;52.040;4.490;2023-02-28T19:48:33;5.00;99.90
41447;DHT22;27185;52.040;4.490;2023-02-28T19:51:19;5.00;99.90